sensor_id;sensor_type;location;lat;lon;timestamp;pressure;altitude;pressure_sealevel;temperature;humidity
45323;BME280;31382;50.200;8.674;2023-07-16T00:03:02;99928.34;;;21.19;77.57
45323;BME280;31382;50.200;8.674;2023-07-16T00:08:04;99931.56;;;21.11;78.21
45323;BME280;31382;50.200;8.674;2023-07-16T00:13:06;99894.16;;;21.17;77.40
45323;BME280;31382;50.200;8.674;2023-07-16T00:18:07;99866.84;;;21.17;77.74
45323;BME280;31382;50.200;8.674;2023-07-16T00:23:09;99870.00;;;21.09;77.30
45323;BME280;31382;50.200;8.674;2023-07-16T00:28:10;99918.59;;;21.02;77.63
45323;BME280;31382;50.200;8.674;2023-07-16T00:33:13;99909.03;;;21.04;77.74
45323;BME280;31382;50.200;8.674;2023-07-16T00:38:14;99908.72;;;21.00;78.10
45323;BME280;31382;50.200;8.674;2023-07-16T00:43:16;99898.38;;;21.03;77.96
45323;BME280;31382;50.200;8.674;2023-07-16T00:48:18;99897.47;;;20.97;77.67
45323;BME280;31382;50.200;8.674;2023-07-16T00:53:20;99923.16;;;20.96;77.58
45323;BME280;31382;50.200;8.674;2023-07-16T00:58:22;99943.38;;;20.95;76.91
45323;BME280;31382;50.200;8.674;2023-07-16T01:03:24;99925.91;;;20.96;77.13
45323;BME280;31382;50.200;8.674;2023-07-16T01:13:42;99923.41;;;20.94;76.68
45323;BME280;31382;50.200;8.674;2023-07-16T01:18:44;99916.31;;;20.93;76.38
45323;BME280;31382;50.200;8.674;2023-07-16T01:23:57;99925.91;;;20.96;76.11
45323;BME280;31382;50.200;8.674;2023-07-16T01:29:10;99941.72;;;20.94;76.42
45323;BME280;31382;50.200;8.674;2023-07-16T01:34:15;99961.34;;;20.91;75.98
45323;BME280;31382;50.200;8.674;2023-07-16T01:39:17;99959.47;;;20.91;75.97
45323;BME280;31382;50.200;8.674;2023-07-16T01:44:19;99981.06;;;20.93;75.79
45323;BME280;31382;50.200;8.674;2023-07-16T01:49:20;99988.88;;;20.84;75.47
45323;BME280;31382;50.200;8.674;2023-07-16T01:54:22;99993.44;;;20.78;75.83
45323;BME280;31382;50.200;8.674;2023-07-16T01:59:23;100003.88;;;20.82;75.57
45323;BME280;31382;50.200;8.674;2023-07-16T02:04:25;100008.19;;;20.77;75.16
45323;BME280;31382;50.200;8.674;2023-07-16T02:09:26;100001.38;;;20.80;75.02
45323;BME280;31382;50.200;8.674;2023-07-16T02:14:27;100007.63;;;20.75;74.66
45323;BME280;31382;50.200;8.674;2023-07-16T02:19:29;100015.16;;;20.68;74.73
45323;BME280;31382;50.200;8.674;2023-07-16T02:24:30;100028.25;;;20.66;74.67
45323;BME280;31382;50.200;8.674;2023-07-16T02:29:32;100018.53;;;20.75;74.16
45323;BME280;31382;50.200;8.674;2023-07-16T02:34:33;100035.19;;;20.74;74.25
45323;BME280;31382;50.200;8.674;2023-07-16T02:39:35;100040.06;;;20.72;74.46
45323;BME280;31382;50.200;8.674;2023-07-16T02:44:36;100058.84;;;20.68;74.23
45323;BME280;31382;50.200;8.674;2023-07-16T02:49:43;100058.91;;;20.73;74.46
45323;BME280;31382;50.200;8.674;2023-07-16T02:54:44;100070.28;;;20.65;74.13
45323;BME280;31382;50.200;8.674;2023-07-16T02:59:45;100075.59;;;20.72;73.94
45323;BME280;31382;50.200;8.674;2023-07-16T03:04:47;100088.00;;;20.79;73.41
45323;BME280;31382;50.200;8.674;2023-07-16T03:09:48;100087.41;;;20.77;73.20
45323;BME280;31382;50.200;8.674;2023-07-16T03:14:50;100081.38;;;20.75;73.74
45323;BME280;31382;50.200;8.674;2023-07-16T03:19:52;100091.69;;;20.73;73.73
45323;BME280;31382;50.200;8.674;2023-07-16T03:24:53;100089.63;;;20.80;73.40
45323;BME280;31382;50.200;8.674;2023-07-16T03:29:55;100095.19;;;20.86;73.13
45323;BME280;31382;50.200;8.674;2023-07-16T03:34:56;100103.06;;;20.82;73.08
45323;BME280;31382;50.200;8.674;2023-07-16T03:40:12;100110.50;;;20.87;72.78
45323;BME280;31382;50.200;8.674;2023-07-16T03:45:14;100110.91;;;20.95;72.44
45323;BME280;31382;50.200;8.674;2023-07-16T03:50:16;100130.19;;;20.89;72.90
45323;BME280;31382;50.200;8.674;2023-07-16T03:55:17;100127.47;;;20.89;72.91
45323;BME280;31382;50.200;8.674;2023-07-16T04:00:19;100128.03;;;20.91;72.65
45323;BME280;31382;50.200;8.674;2023-07-16T04:05:20;100132.78;;;20.95;72.66
45323;BME280;31382;50.200;8.674;2023-07-16T04:10:25;100134.75;;;20.83;72.52
45323;BME280;31382;50.200;8.674;2023-07-16T04:15:26;100142.22;;;20.88;72.42
45323;BME280;31382;50.200;8.674;2023-07-16T04:20:27;100142.94;;;20.83;72.42
45323;BME280;31382;50.200;8.674;2023-07-16T04:25:30;100146.53;;;20.84;72.24
45323;BME280;31382;50.200;8.674;2023-07-16T04:30:31;100156.78;;;20.76;72.51
45323;BME280;31382;50.200;8.674;2023-07-16T04:35:33;100161.56;;;20.69;72.59
45323;BME280;31382;50.200;8.674;2023-07-16T04:40:35;100171.91;;;20.67;72.19
45323;BME280;31382;50.200;8.674;2023-07-16T04:45:36;100179.53;;;20.65;71.91
45323;BME280;31382;50.200;8.674;2023-07-16T04:50:38;100177.38;;;20.67;71.51
45323;BME280;31382;50.200;8.674;2023-07-16T04:55:40;100182.59;;;20.69;71.53
45323;BME280;31382;50.200;8.674;2023-07-16T05:00:41;100187.00;;;20.70;71.04
45323;BME280;31382;50.200;8.674;2023-07-16T05:05:43;100191.94;;;20.73;70.77
45323;BME280;31382;50.200;8.674;2023-07-16T05:10:44;100201.75;;;20.86;70.59
45323;BME280;31382;50.200;8.674;2023-07-16T05:15:46;100210.69;;;20.98;69.87
45323;BME280;31382;50.200;8.674;2023-07-16T05:20:47;100213.56;;;21.08;69.94
45323;BME280;31382;50.200;8.674;2023-07-16T05:25:50;100213.25;;;21.22;68.99
45323;BME280;31382;50.200;8.674;2023-07-16T05:30:59;100227.41;;;21.18;68.94
45323;BME280;31382;50.200;8.674;2023-07-16T05:36:00;100233.88;;;21.12;68.84
45323;BME280;31382;50.200;8.674;2023-07-16T05:41:03;100245.97;;;21.16;68.19
45323;BME280;31382;50.200;8.674;2023-07-16T05:46:04;100246.53;;;21.18;67.84
45323;BME280;31382;50.200;8.674;2023-07-16T05:51:06;100249.38;;;21.24;67.50
45323;BME280;31382;50.200;8.674;2023-07-16T05:56:08;100252.19;;;21.12;67.47
45323;BME280;31382;50.200;8.674;2023-07-16T06:01:09;100253.69;;;21.19;67.64
45323;BME280;31382;50.200;8.674;2023-07-16T06:06:11;100257.22;;;21.20;67.40
45323;BME280;31382;50.200;8.674;2023-07-16T06:11:12;100262.22;;;21.23;66.73
45323;BME280;31382;50.200;8.674;2023-07-16T06:16:14;100253.44;;;21.21;66.77
45323;BME280;31382;50.200;8.674;2023-07-16T06:21:16;100254.00;;;21.23;66.31
45323;BME280;31382;50.200;8.674;2023-07-16T06:26:17;100266.50;;;21.36;65.90
45323;BME280;31382;50.200;8.674;2023-07-16T06:31:19;100264.88;;;21.35;65.87
45323;BME280;31382;50.200;8.674;2023-07-16T06:36:25;100269.00;;;21.20;65.98
45323;BME280;31382;50.200;8.674;2023-07-16T06:41:26;100256.50;;;21.08;65.33
45323;BME280;31382;50.200;8.674;2023-07-16T06:46:28;100269.66;;;21.28;64.48
45323;BME280;31382;50.200;8.674;2023-07-16T06:51:29;100274.78;;;21.24;63.60
45323;BME280;31382;50.200;8.674;2023-07-16T06:56:32;100269.09;;;21.26;63.42
45323;BME280;31382;50.200;8.674;2023-07-16T07:01:34;100273.59;;;21.49;62.45
45323;BME280;31382;50.200;8.674;2023-07-16T07:06:35;100265.78;;;21.57;61.53
45323;BME280;31382;50.200;8.674;2023-07-16T07:11:37;100274.78;;;21.75;61.17
45323;BME280;31382;50.200;8.674;2023-07-16T07:16:38;100276.84;;;21.85;60.45
45323;BME280;31382;50.200;8.674;2023-07-16T07:21:41;100278.31;;;21.92;59.56
45323;BME280;31382;50.200;8.674;2023-07-16T07:26:42;100269.44;;;21.85;59.24
45323;BME280;31382;50.200;8.674;2023-07-16T07:31:44;100265.66;;;22.08;58.55
45323;BME280;31382;50.200;8.674;2023-07-16T07:36:45;100284.03;;;22.30;57.73
45323;BME280;31382;50.200;8.674;2023-07-16T07:41:47;100285.06;;;22.51;57.17
45323;BME280;31382;50.200;8.674;2023-07-16T07:46:48;100295.69;;;22.69;56.40
45323;BME280;31382;50.200;8.674;2023-07-16T07:51:50;100289.28;;;22.86;55.74
45323;BME280;31382;50.200;8.674;2023-07-16T07:56:51;100295.09;;;22.94;54.79
45323;BME280;31382;50.200;8.674;2023-07-16T08:01:53;100282.41;;;23.10;54.94
45323;BME280;31382;50.200;8.674;2023-07-16T08:06:54;100291.50;;;23.16;54.33
45323;BME280;31382;50.200;8.674;2023-07-16T08:11:55;100294.41;;;23.04;53.67
45323;BME280;31382;50.200;8.674;2023-07-16T08:16:57;100279.72;;;23.15;53.22
45323;BME280;31382;50.200;8.674;2023-07-16T08:21:58;100303.41;;;23.32;52.34
45323;BME280;31382;50.200;8.674;2023-07-16T08:26:59;100295.19;;;23.32;52.93
45323;BME280;31382;50.200;8.674;2023-07-16T08:32:01;100308.16;;;23.36;51.41
45323;BME280;31382;50.200;8.674;2023-07-16T08:37:03;100301.97;;;23.24;50.14
45323;BME280;31382;50.200;8.674;2023-07-16T08:42:04;100300.91;;;23.25;49.63
45323;BME280;31382;50.200;8.674;2023-07-16T08:47:06;100306.78;;;23.39;49.09
45323;BME280;31382;50.200;8.674;2023-07-16T08:52:09;100311.72;;;23.37;48.31
45323;BME280;31382;50.200;8.674;2023-07-16T08:57:10;100304.66;;;23.46;48.10
45323;BME280;31382;50.200;8.674;2023-07-16T09:02:12;100311.94;;;23.68;47.32
45323;BME280;31382;50.200;8.674;2023-07-16T09:07:15;100320.06;;;23.52;47.41
45323;BME280;31382;50.200;8.674;2023-07-16T09:12:16;100311.38;;;23.28;46.41
45323;BME280;31382;50.200;8.674;2023-07-16T09:17:24;100314.00;;;23.50;46.68
45323;BME280;31382;50.200;8.674;2023-07-16T09:22:26;100323.59;;;23.85;46.06
45323;BME280;31382;50.200;8.674;2023-07-16T09:27:29;100313.41;;;23.81;46.36
45323;BME280;31382;50.200;8.674;2023-07-16T09:32:38;100320.63;;;23.92;46.57
45323;BME280;31382;50.200;8.674;2023-07-16T09:37:42;100315.19;;;24.02;45.67
45323;BME280;31382;50.200;8.674;2023-07-16T09:42:44;100326.44;;;24.01;45.18
45323;BME280;31382;50.200;8.674;2023-07-16T09:47:45;100319.91;;;24.12;45.33
45323;BME280;31382;50.200;8.674;2023-07-16T09:52:47;100309.03;;;24.38;44.63
45323;BME280;31382;50.200;8.674;2023-07-16T09:57:52;100311.00;;;24.47;44.16
45323;BME280;31382;50.200;8.674;2023-07-16T10:02:54;100314.31;;;24.49;44.14
45323;BME280;31382;50.200;8.674;2023-07-16T10:08:00;100318.78;;;24.76;43.03
45323;BME280;31382;50.200;8.674;2023-07-16T10:13:02;100322.13;;;24.93;42.75
45323;BME280;31382;50.200;8.674;2023-07-16T10:18:03;100317.47;;;25.09;42.47
45323;BME280;31382;50.200;8.674;2023-07-16T10:23:15;100329.09;;;25.27;41.49
45323;BME280;31382;50.200;8.674;2023-07-16T10:28:17;100315.06;;;25.54;41.25
45323;BME280;31382;50.200;8.674;2023-07-16T10:33:18;100319.16;;;25.67;40.59
45323;BME280;31382;50.200;8.674;2023-07-16T10:38:21;100317.75;;;25.75;40.21
45323;BME280;31382;50.200;8.674;2023-07-16T10:43:23;100315.00;;;25.80;39.92
45323;BME280;31382;50.200;8.674;2023-07-16T10:48:25;100311.97;;;25.71;38.70
45323;BME280;31382;50.200;8.674;2023-07-16T10:53:27;100309.78;;;25.63;38.41
45323;BME280;31382;50.200;8.674;2023-07-16T10:58:28;100314.75;;;25.76;38.02
45323;BME280;31382;50.200;8.674;2023-07-16T11:03:30;100316.91;;;25.95;37.91
45323;BME280;31382;50.200;8.674;2023-07-16T11:08:32;100316.13;;;25.73;37.64
45323;BME280;31382;50.200;8.674;2023-07-16T11:13:33;100311.44;;;25.79;37.57
45323;BME280;31382;50.200;8.674;2023-07-16T11:18:35;100308.59;;;26.15;37.24
45323;BME280;31382;50.200;8.674;2023-07-16T11:23:37;100314.91;;;26.26;36.93
45323;BME280;31382;50.200;8.674;2023-07-16T11:28:40;100300.47;;;26.49;36.53
45323;BME280;31382;50.200;8.674;2023-07-16T11:33:45;100311.00;;;26.32;36.69
45323;BME280;31382;50.200;8.674;2023-07-16T11:38:48;100300.72;;;26.53;35.83
45323;BME280;31382;50.200;8.674;2023-07-16T11:43:50;100307.91;;;26.49;35.82
45323;BME280;31382;50.200;8.674;2023-07-16T11:48:51;100304.84;;;26.61;34.88
45323;BME280;31382;50.200;8.674;2023-07-16T11:53:55;100301.22;;;26.65;34.15
45323;BME280;31382;50.200;8.674;2023-07-16T11:58:57;100294.53;;;26.77;34.03
45323;BME280;31382;50.200;8.674;2023-07-16T12:03:58;100298.38;;;26.81;33.28
45323;BME280;31382;50.200;8.674;2023-07-16T12:09:00;100297.31;;;26.71;33.00
45323;BME280;31382;50.200;8.674;2023-07-16T12:14:01;100304.75;;;26.76;33.14
45323;BME280;31382;50.200;8.674;2023-07-16T12:19:02;100291.09;;;26.95;32.80
45323;BME280;31382;50.200;8.674;2023-07-16T12:24:04;100285.19;;;27.46;32.55
45323;BME280;31382;50.200;8.674;2023-07-16T12:29:06;100284.28;;;27.56;31.87
45323;BME280;31382;50.200;8.674;2023-07-16T12:34:08;100275.31;;;27.40;32.13
45323;BME280;31382;50.200;8.674;2023-07-16T12:39:09;100278.41;;;27.63;31.33
45323;BME280;31382;50.200;8.674;2023-07-16T12:44:11;100280.06;;;27.93;31.27
45323;BME280;31382;50.200;8.674;2023-07-16T12:49:12;100285.53;;;27.98;31.08
45323;BME280;31382;50.200;8.674;2023-07-16T12:54:14;100279.84;;;28.33;30.17
45323;BME280;31382;50.200;8.674;2023-07-16T12:59:15;100284.84;;;28.31;29.44
45323;BME280;31382;50.200;8.674;2023-07-16T13:04:17;100280.47;;;28.86;28.97
45323;BME280;31382;50.200;8.674;2023-07-16T13:09:18;100279.78;;;28.95;29.28
45323;BME280;31382;50.200;8.674;2023-07-16T13:14:19;100281.16;;;28.78;28.74
45323;BME280;31382;50.200;8.674;2023-07-16T13:19:21;100279.28;;;28.55;28.62
45323;BME280;31382;50.200;8.674;2023-07-16T13:24:22;100281.97;;;28.98;28.59
45323;BME280;31382;50.200;8.674;2023-07-16T13:29:24;100280.03;;;28.60;28.58
45323;BME280;31382;50.200;8.674;2023-07-16T13:34:25;100281.00;;;29.40;28.13
45323;BME280;31382;50.200;8.674;2023-07-16T13:39:26;100277.47;;;29.67;28.21
45323;BME280;31382;50.200;8.674;2023-07-16T13:44:28;100267.75;;;29.70;27.72
45323;BME280;31382;50.200;8.674;2023-07-16T13:49:29;100269.69;;;30.11;27.27
45323;BME280;31382;50.200;8.674;2023-07-16T13:54:31;100279.72;;;30.62;26.84
45323;BME280;31382;50.200;8.674;2023-07-16T13:59:32;100266.69;;;31.85;25.51
45323;BME280;31382;50.200;8.674;2023-07-16T14:04:34;100273.22;;;31.89;25.25
45323;BME280;31382;50.200;8.674;2023-07-16T14:09:35;100272.66;;;31.69;25.44
45323;BME280;31382;50.200;8.674;2023-07-16T14:14:37;100275.56;;;31.95;24.79
45323;BME280;31382;50.200;8.674;2023-07-16T14:19:38;100282.75;;;31.56;24.96
45323;BME280;31382;50.200;8.674;2023-07-16T14:24:40;100279.44;;;30.50;25.55
45323;BME280;31382;50.200;8.674;2023-07-16T14:29:41;100285.63;;;29.92;26.51
45323;BME280;31382;50.200;8.674;2023-07-16T14:35:03;100267.94;;;30.15;26.09
45323;BME280;31382;50.200;8.674;2023-07-16T14:40:05;100290.13;;;29.88;26.30
45323;BME280;31382;50.200;8.674;2023-07-16T14:45:09;100265.28;;;29.69;26.55
45323;BME280;31382;50.200;8.674;2023-07-16T14:50:10;100262.75;;;29.86;26.76
45323;BME280;31382;50.200;8.674;2023-07-16T14:55:12;100268.13;;;29.63;26.89
45323;BME280;31382;50.200;8.674;2023-07-16T15:00:14;100257.88;;;29.17;26.92
45323;BME280;31382;50.200;8.674;2023-07-16T15:05:15;100250.91;;;29.66;26.04
45323;BME280;31382;50.200;8.674;2023-07-16T15:10:17;100254.78;;;29.65;26.38
45323;BME280;31382;50.200;8.674;2023-07-16T15:15:18;100259.22;;;29.66;26.91
45323;BME280;31382;50.200;8.674;2023-07-16T15:20:19;100252.03;;;30.07;25.92
45323;BME280;31382;50.200;8.674;2023-07-16T15:25:21;100257.22;;;30.64;25.37
45323;BME280;31382;50.200;8.674;2023-07-16T15:30:23;100256.50;;;30.58;25.98
45323;BME280;31382;50.200;8.674;2023-07-16T15:35:24;100255.94;;;31.07;24.85
45323;BME280;31382;50.200;8.674;2023-07-16T15:40:26;100253.28;;;31.01;25.45
45323;BME280;31382;50.200;8.674;2023-07-16T15:45:27;100259.81;;;30.83;25.61
45323;BME280;31382;50.200;8.674;2023-07-16T15:50:29;100246.50;;;30.71;25.22
45323;BME280;31382;50.200;8.674;2023-07-16T15:55:30;100257.00;;;30.60;25.06
45323;BME280;31382;50.200;8.674;2023-07-16T16:00:31;100251.81;;;30.81;25.18
45323;BME280;31382;50.200;8.674;2023-07-16T16:05:33;100251.81;;;30.81;25.56
45323;BME280;31382;50.200;8.674;2023-07-16T16:10:34;100252.22;;;30.52;25.33
45323;BME280;31382;50.200;8.674;2023-07-16T16:15:35;100251.13;;;30.39;25.57
45323;BME280;31382;50.200;8.674;2023-07-16T16:20:38;100256.53;;;30.44;25.26
45323;BME280;31382;50.200;8.674;2023-07-16T16:25:40;100244.88;;;30.34;25.19
45323;BME280;31382;50.200;8.674;2023-07-16T16:30:41;100241.84;;;30.30;25.56
45323;BME280;31382;50.200;8.674;2023-07-16T16:35:43;100225.97;;;30.58;25.45
45323;BME280;31382;50.200;8.674;2023-07-16T16:40:44;100239.16;;;30.53;25.71
45323;BME280;31382;50.200;8.674;2023-07-16T16:45:46;100234.06;;;30.18;25.43
45323;BME280;31382;50.200;8.674;2023-07-16T16:50:54;100235.53;;;30.02;25.46
45323;BME280;31382;50.200;8.674;2023-07-16T16:55:55;100232.38;;;30.45;25.42
45323;BME280;31382;50.200;8.674;2023-07-16T17:00:57;100233.94;;;30.74;25.34
45323;BME280;31382;50.200;8.674;2023-07-16T17:05:59;100238.69;;;30.23;25.67
45323;BME280;31382;50.200;8.674;2023-07-16T17:11:01;100249.28;;;30.07;25.38
45323;BME280;31382;50.200;8.674;2023-07-16T17:16:03;100239.31;;;30.34;25.06
45323;BME280;31382;50.200;8.674;2023-07-16T17:21:04;100240.81;;;30.54;24.89
45323;BME280;31382;50.200;8.674;2023-07-16T17:26:06;100240.84;;;30.26;25.06
45323;BME280;31382;50.200;8.674;2023-07-16T17:31:07;100243.75;;;29.93;24.73
45323;BME280;31382;50.200;8.674;2023-07-16T17:36:11;100242.63;;;30.08;25.31
45323;BME280;31382;50.200;8.674;2023-07-16T17:41:13;100239.81;;;30.36;25.09
45323;BME280;31382;50.200;8.674;2023-07-16T17:46:14;100239.19;;;30.11;25.13
45323;BME280;31382;50.200;8.674;2023-07-16T17:51:16;100245.69;;;30.07;25.34
45323;BME280;31382;50.200;8.674;2023-07-16T17:56:18;100243.00;;;30.15;25.48
45323;BME280;31382;50.200;8.674;2023-07-16T18:01:20;100255.81;;;30.25;25.57
45323;BME280;31382;50.200;8.674;2023-07-16T18:06:23;100255.03;;;29.97;26.07
45323;BME280;31382;50.200;8.674;2023-07-16T18:11:24;100249.47;;;30.11;25.65
45323;BME280;31382;50.200;8.674;2023-07-16T18:16:25;100249.41;;;29.74;25.82
45323;BME280;31382;50.200;8.674;2023-07-16T18:21:27;100253.75;;;29.15;27.00
45323;BME280;31382;50.200;8.674;2023-07-16T18:26:41;100258.00;;;28.74;26.89
45323;BME280;31382;50.200;8.674;2023-07-16T18:31:42;100252.19;;;28.33;27.45
45323;BME280;31382;50.200;8.674;2023-07-16T18:36:44;100253.06;;;28.09;28.07
45323;BME280;31382;50.200;8.674;2023-07-16T18:41:45;100256.09;;;27.83;28.51
45323;BME280;31382;50.200;8.674;2023-07-16T18:46:46;100265.22;;;27.55;28.36
45323;BME280;31382;50.200;8.674;2023-07-16T18:51:48;100269.50;;;27.42;29.12
45323;BME280;31382;50.200;8.674;2023-07-16T18:56:50;100263.19;;;27.36;29.29
45323;BME280;31382;50.200;8.674;2023-07-16T19:01:51;100270.19;;;27.23;29.84
45323;BME280;31382;50.200;8.674;2023-07-16T19:06:53;100280.22;;;27.14;29.91
45323;BME280;31382;50.200;8.674;2023-07-16T19:11:54;100275.63;;;26.99;29.80
45323;BME280;31382;50.200;8.674;2023-07-16T19:16:56;100280.19;;;26.80;30.44
45323;BME280;31382;50.200;8.674;2023-07-16T19:21:58;100286.94;;;26.58;30.75
45323;BME280;31382;50.200;8.674;2023-07-16T19:27:01;100280.63;;;26.47;31.10
45323;BME280;31382;50.200;8.674;2023-07-16T19:32:03;100284.63;;;26.21;31.37
45323;BME280;31382;50.200;8.674;2023-07-16T19:37:05;100289.06;;;26.06;31.86
45323;BME280;31382;50.200;8.674;2023-07-16T19:42:09;100293.78;;;25.90;31.93
45323;BME280;31382;50.200;8.674;2023-07-16T19:47:10;100303.72;;;25.76;32.47
45323;BME280;31382;50.200;8.674;2023-07-16T19:52:12;100305.38;;;25.67;32.53
45323;BME280;31382;50.200;8.674;2023-07-16T19:57:13;100311.75;;;25.52;32.45
45323;BME280;31382;50.200;8.674;2023-07-16T20:02:15;100314.50;;;25.37;33.31
45323;BME280;31382;50.200;8.674;2023-07-16T20:07:16;100329.91;;;25.22;33.13
45323;BME280;31382;50.200;8.674;2023-07-16T20:12:18;100341.16;;;25.00;34.06
45323;BME280;31382;50.200;8.674;2023-07-16T20:17:19;100341.06;;;24.69;34.77
45323;BME280;31382;50.200;8.674;2023-07-16T20:22:21;100331.56;;;24.40;34.83
45323;BME280;31382;50.200;8.674;2023-07-16T20:27:25;100337.34;;;24.33;35.13
45323;BME280;31382;50.200;8.674;2023-07-16T20:32:27;100341.97;;;24.27;35.49
45323;BME280;31382;50.200;8.674;2023-07-16T20:37:29;100341.59;;;24.08;35.91
45323;BME280;31382;50.200;8.674;2023-07-16T20:42:30;100344.75;;;23.85;36.90
45323;BME280;31382;50.200;8.674;2023-07-16T20:47:32;100345.84;;;23.51;37.59
45323;BME280;31382;50.200;8.674;2023-07-16T20:52:34;100348.16;;;23.32;38.12
45323;BME280;31382;50.200;8.674;2023-07-16T20:57:39;100349.25;;;23.31;38.41
45323;BME280;31382;50.200;8.674;2023-07-16T21:02:45;100356.50;;;23.15;38.90
45323;BME280;31382;50.200;8.674;2023-07-16T21:07:47;100354.03;;;22.92;39.27
45323;BME280;31382;50.200;8.674;2023-07-16T21:12:55;100350.06;;;22.77;40.00
45323;BME280;31382;50.200;8.674;2023-07-16T21:18:03;100362.31;;;22.48;40.42
45323;BME280;31382;50.200;8.674;2023-07-16T21:23:06;100353.88;;;22.15;41.19
45323;BME280;31382;50.200;8.674;2023-07-16T21:28:08;100358.88;;;22.18;41.18
45323;BME280;31382;50.200;8.674;2023-07-16T21:33:10;100355.47;;;22.11;41.55
45323;BME280;31382;50.200;8.674;2023-07-16T21:38:12;100360.47;;;21.97;42.60
45323;BME280;31382;50.200;8.674;2023-07-16T21:43:13;100360.09;;;21.89;43.02
45323;BME280;31382;50.200;8.674;2023-07-16T21:48:16;100367.81;;;21.75;42.97
45323;BME280;31382;50.200;8.674;2023-07-16T21:53:17;100379.44;;;21.65;43.56
45323;BME280;31382;50.200;8.674;2023-07-16T21:58:19;100377.59;;;21.54;43.57
45323;BME280;31382;50.200;8.674;2023-07-16T22:03:20;100381.56;;;21.46;44.51
45323;BME280;31382;50.200;8.674;2023-07-16T22:08:22;100374.56;;;21.38;45.13
45323;BME280;31382;50.200;8.674;2023-07-16T22:13:24;100385.56;;;21.27;45.76
45323;BME280;31382;50.200;8.674;2023-07-16T22:18:28;100385.91;;;21.13;45.99
45323;BME280;31382;50.200;8.674;2023-07-16T22:23:30;100381.72;;;21.11;46.57
45323;BME280;31382;50.200;8.674;2023-07-16T22:28:31;100389.50;;;21.02;46.90
45323;BME280;31382;50.200;8.674;2023-07-16T22:33:34;100379.44;;;20.91;46.90
45323;BME280;31382;50.200;8.674;2023-07-16T22:38:37;100382.69;;;20.88;47.59
45323;BME280;31382;50.200;8.674;2023-07-16T22:43:38;100378.06;;;20.76;47.81
45323;BME280;31382;50.200;8.674;2023-07-16T22:48:40;100389.50;;;20.62;47.88
45323;BME280;31382;50.200;8.674;2023-07-16T22:53:42;100384.16;;;20.55;48.06
45323;BME280;31382;50.200;8.674;2023-07-16T22:58:44;100385.13;;;20.49;48.41
45323;BME280;31382;50.200;8.674;2023-07-16T23:03:45;100386.44;;;20.46;48.39
45323;BME280;31382;50.200;8.674;2023-07-16T23:08:47;100384.41;;;20.41;48.59
45323;BME280;31382;50.200;8.674;2023-07-16T23:13:48;100389.19;;;20.34;48.80
45323;BME280;31382;50.200;8.674;2023-07-16T23:18:49;100396.44;;;20.29;48.79
45323;BME280;31382;50.200;8.674;2023-07-16T23:23:51;100394.66;;;20.23;49.20
45323;BME280;31382;50.200;8.674;2023-07-16T23:28:52;100385.16;;;20.13;49.26
45323;BME280;31382;50.200;8.674;2023-07-16T23:33:54;100382.09;;;20.10;49.92
45323;BME280;31382;50.200;8.674;2023-07-16T23:38:56;100376.53;;;20.05;49.58
45323;BME280;31382;50.200;8.674;2023-07-16T23:43:58;100385.91;;;19.97;50.17
45323;BME280;31382;50.200;8.674;2023-07-16T23:48:59;100390.88;;;19.88;50.08
45323;BME280;31382;50.200;8.674;2023-07-16T23:54:01;100390.75;;;19.83;50.33
45323;BME280;31382;50.200;8.674;2023-07-16T23:59:21;100392.03;;;19.80;50.48
